sensor_id;sensor_type;location;lat;lon;timestamp;temperature;humidity
5930;DHT22;2990;48.746;9.236;2022-11-23T00:00:22;3.60;1.00
5930;DHT22;2990;48.746;9.236;2022-11-23T00:02:55;3.70;1.00
5930;DHT22;2990;48.746;9.236;2022-11-23T00:05:20;3.70;1.00
5930;DHT22;2990;48.746;9.236;2022-11-23T00:07:46;3.70;1.00
5930;DHT22;2990;48.746;9.236;2022-11-23T00:10:12;3.70;1.00
5930;DHT22;2990;48.746;9.236;2022-11-23T00:12:37;3.70;1.00
5930;DHT22;2990;48.746;9.236;2022-11-23T00:15:04;3.80;1.00
5930;DHT22;2990;48.746;9.236;2022-11-23T00:17:30;3.80;1.00
5930;DHT22;2990;48.746;9.236;2022-11-23T00:19:55;3.70;1.00
5930;DHT22;2990;48.746;9.236;2022-11-23T00:22:21;3.80;1.00
5930;DHT22;2990;48.746;9.236;2022-11-23T00:24:46;3.70;1.00
5930;DHT22;2990;48.746;9.236;2022-11-23T00:27:12;3.70;1.00
5930;DHT22;2990;48.746;9.236;2022-11-23T00:29:37;3.70;1.00
5930;DHT22;2990;48.746;9.236;2022-11-23T00:32:03;3.70;1.00
5930;DHT22;2990;48.746;9.236;2022-11-23T00:34:29;3.60;1.00
5930;DHT22;2990;48.746;9.236;2022-11-23T00:36:54;3.50;1.00
5930;DHT22;2990;48.746;9.236;2022-11-23T00:39:20;3.60;1.00
5930;DHT22;2990;48.746;9.236;2022-11-23T00:41:45;3.60;1.00
5930;DHT22;2990;48.746;9.236;2022-11-23T00:44:11;3.60;1.00
5930;DHT22;2990;48.746;9.236;2022-11-23T00:46:36;3.50;1.00
5930;DHT22;2990;48.746;9.236;2022-11-23T00:49:02;3.50;1.00
5930;DHT22;2990;48.746;9.236;2022-11-23T00:51:30;3.50;1.00
5930;DHT22;2990;48.746;9.236;2022-11-23T00:53:57;3.60;1.00
5930;DHT22;2990;48.746;9.236;2022-11-23T00:56:24;3.60;1.00
5930;DHT22;2990;48.746;9.236;2022-11-23T00:58:52;3.60;1.00
5930;DHT22;2990;48.746;9.236;2022-11-23T01:01:20;3.60;1.00
5930;DHT22;2990;48.746;9.236;2022-11-23T01:03:50;3.60;1.00
5930;DHT22;2990;48.746;9.236;2022-11-23T01:06:18;3.60;1.00
5930;DHT22;2990;48.746;9.236;2022-11-23T01:08:48;3.60;1.00
5930;DHT22;2990;48.746;9.236;2022-11-23T01:11:15;3.60;1.00
5930;DHT22;2990;48.746;9.236;2022-11-23T01:13:41;3.50;1.00
5930;DHT22;2990;48.746;9.236;2022-11-23T01:16:12;3.50;1.00
5930;DHT22;2990;48.746;9.236;2022-11-23T01:18:38;3.50;1.00
5930;DHT22;2990;48.746;9.236;2022-11-23T01:21:04;3.50;1.00
5930;DHT22;2990;48.746;9.236;2022-11-23T01:23:29;3.60;1.00
5930;DHT22;2990;48.746;9.236;2022-11-23T01:25:55;3.60;1.00
5930;DHT22;2990;48.746;9.236;2022-11-23T01:28:21;3.60;1.00
5930;DHT22;2990;48.746;9.236;2022-11-23T01:30:46;3.60;1.00
5930;DHT22;2990;48.746;9.236;2022-11-23T01:33:12;3.60;1.00
5930;DHT22;2990;48.746;9.236;2022-11-23T01:35:38;3.60;1.00
5930;DHT22;2990;48.746;9.236;2022-11-23T01:38:03;3.70;1.00
5930;DHT22;2990;48.746;9.236;2022-11-23T01:40:29;3.70;1.00
5930;DHT22;2990;48.746;9.236;2022-11-23T01:42:58;3.70;1.00
5930;DHT22;2990;48.746;9.236;2022-11-23T01:45:40;3.60;1.00
5930;DHT22;2990;48.746;9.236;2022-11-23T01:48:13;3.70;1.00
5930;DHT22;2990;48.746;9.236;2022-11-23T01:50:42;3.70;1.00
5930;DHT22;2990;48.746;9.236;2022-11-23T01:53:09;3.70;1.00
5930;DHT22;2990;48.746;9.236;2022-11-23T01:55:35;3.70;1.00
5930;DHT22;2990;48.746;9.236;2022-11-23T01:58:01;3.70;1.00
5930;DHT22;2990;48.746;9.236;2022-11-23T02:00:29;3.80;1.00
5930;DHT22;2990;48.746;9.236;2022-11-23T02:02:57;3.80;1.00
5930;DHT22;2990;48.746;9.236;2022-11-23T02:05:28;3.70;1.00
5930;DHT22;2990;48.746;9.236;2022-11-23T02:07:55;3.70;1.00
5930;DHT22;2990;48.746;9.236;2022-11-23T02:10:22;3.70;1.00
5930;DHT22;2990;48.746;9.236;2022-11-23T02:12:48;3.70;1.00
5930;DHT22;2990;48.746;9.236;2022-11-23T02:15:13;3.70;1.00
5930;DHT22;2990;48.746;9.236;2022-11-23T02:17:39;3.60;1.00
5930;DHT22;2990;48.746;9.236;2022-11-23T02:20:11;3.60;1.00
5930;DHT22;2990;48.746;9.236;2022-11-23T02:27:52;3.60;1.00
5930;DHT22;2990;48.746;9.236;2022-11-23T02:30:18;3.50;1.00
5930;DHT22;2990;48.746;9.236;2022-11-23T02:32:44;3.50;1.00
5930;DHT22;2990;48.746;9.236;2022-11-23T02:35:12;3.50;1.00
5930;DHT22;2990;48.746;9.236;2022-11-23T02:37:38;3.40;1.00
5930;DHT22;2990;48.746;9.236;2022-11-23T02:40:15;3.40;1.00
5930;DHT22;2990;48.746;9.236;2022-11-23T02:42:44;3.40;1.00
5930;DHT22;2990;48.746;9.236;2022-11-23T02:45:53;3.30;1.00
5930;DHT22;2990;48.746;9.236;2022-11-23T02:48:19;3.30;1.00
5930;DHT22;2990;48.746;9.236;2022-11-23T02:50:45;3.30;1.00
5930;DHT22;2990;48.746;9.236;2022-11-23T02:53:11;3.30;1.00
5930;DHT22;2990;48.746;9.236;2022-11-23T02:55:37;3.30;1.00
5930;DHT22;2990;48.746;9.236;2022-11-23T02:58:04;3.20;1.00
5930;DHT22;2990;48.746;9.236;2022-11-23T03:00:30;3.20;1.00
5930;DHT22;2990;48.746;9.236;2022-11-23T03:02:57;3.20;1.00
5930;DHT22;2990;48.746;9.236;2022-11-23T03:05:24;3.20;1.00
5930;DHT22;2990;48.746;9.236;2022-11-23T03:07:50;3.20;1.00
5930;DHT22;2990;48.746;9.236;2022-11-23T03:10:16;3.10;1.00
5930;DHT22;2990;48.746;9.236;2022-11-23T03:12:42;3.20;1.00
5930;DHT22;2990;48.746;9.236;2022-11-23T03:15:08;3.10;1.00
5930;DHT22;2990;48.746;9.236;2022-11-23T03:17:34;3.10;1.00
5930;DHT22;2990;48.746;9.236;2022-11-23T03:20:00;3.10;1.00
5930;DHT22;2990;48.746;9.236;2022-11-23T03:22:25;3.00;1.00
5930;DHT22;2990;48.746;9.236;2022-11-23T03:24:51;2.90;1.00
5930;DHT22;2990;48.746;9.236;2022-11-23T03:27:16;2.90;1.00
5930;DHT22;2990;48.746;9.236;2022-11-23T03:29:42;2.90;1.00
5930;DHT22;2990;48.746;9.236;2022-11-23T03:32:08;2.90;11.10
5930;DHT22;2990;48.746;9.236;2022-11-23T03:34:33;2.90;9.30
5930;DHT22;2990;48.746;9.236;2022-11-23T03:36:59;2.90;6.70
5930;DHT22;2990;48.746;9.236;2022-11-23T03:39:25;2.90;12.20
5930;DHT22;2990;48.746;9.236;2022-11-23T03:41:50;2.90;17.30
5930;DHT22;2990;48.746;9.236;2022-11-23T03:44:16;2.90;13.50
5930;DHT22;2990;48.746;9.236;2022-11-23T03:46:41;2.90;17.70
5930;DHT22;2990;48.746;9.236;2022-11-23T03:49:07;2.90;11.90
5930;DHT22;2990;48.746;9.236;2022-11-23T03:51:32;3.00;21.60
5930;DHT22;2990;48.746;9.236;2022-11-23T03:53:58;3.10;6.70
5930;DHT22;2990;48.746;9.236;2022-11-23T03:56:24;3.20;1.00
5930;DHT22;2990;48.746;9.236;2022-11-23T03:58:49;3.20;1.00
5930;DHT22;2990;48.746;9.236;2022-11-23T04:01:15;3.20;1.00
5930;DHT22;2990;48.746;9.236;2022-11-23T04:03:40;3.30;1.00
5930;DHT22;2990;48.746;9.236;2022-11-23T04:06:06;3.30;1.00
5930;DHT22;2990;48.746;9.236;2022-11-23T04:08:31;3.40;1.00
5930;DHT22;2990;48.746;9.236;2022-11-23T04:10:58;3.40;1.00
5930;DHT22;2990;48.746;9.236;2022-11-23T04:13:24;3.50;1.00
5930;DHT22;2990;48.746;9.236;2022-11-23T04:15:49;3.50;1.00
5930;DHT22;2990;48.746;9.236;2022-11-23T04:18:15;3.50;1.00
5930;DHT22;2990;48.746;9.236;2022-11-23T04:20:41;3.50;1.00
5930;DHT22;2990;48.746;9.236;2022-11-23T04:23:06;3.50;1.00
5930;DHT22;2990;48.746;9.236;2022-11-23T04:25:32;3.50;1.00
5930;DHT22;2990;48.746;9.236;2022-11-23T04:27:58;3.60;1.00
5930;DHT22;2990;48.746;9.236;2022-11-23T04:30:23;3.60;1.00
5930;DHT22;2990;48.746;9.236;2022-11-23T04:32:49;3.60;1.00
5930;DHT22;2990;48.746;9.236;2022-11-23T04:35:14;3.60;1.00
5930;DHT22;2990;48.746;9.236;2022-11-23T04:37:40;3.60;1.00
5930;DHT22;2990;48.746;9.236;2022-11-23T04:40:06;3.60;1.00
5930;DHT22;2990;48.746;9.236;2022-11-23T04:42:31;3.50;1.00
5930;DHT22;2990;48.746;9.236;2022-11-23T04:44:57;3.50;1.00
5930;DHT22;2990;48.746;9.236;2022-11-23T04:47:23;3.50;1.00
5930;DHT22;2990;48.746;9.236;2022-11-23T04:49:49;3.50;1.00
5930;DHT22;2990;48.746;9.236;2022-11-23T04:52:15;3.40;1.00
5930;DHT22;2990;48.746;9.236;2022-11-23T04:54:41;3.40;1.00
5930;DHT22;2990;48.746;9.236;2022-11-23T04:57:07;3.40;1.00
5930;DHT22;2990;48.746;9.236;2022-11-23T04:59:33;3.40;1.00
5930;DHT22;2990;48.746;9.236;2022-11-23T05:01:58;3.30;1.00
5930;DHT22;2990;48.746;9.236;2022-11-23T05:04:24;3.40;1.00
5930;DHT22;2990;48.746;9.236;2022-11-23T05:06:50;3.30;1.00
5930;DHT22;2990;48.746;9.236;2022-11-23T05:09:15;3.20;1.00
5930;DHT22;2990;48.746;9.236;2022-11-23T05:11:41;3.20;1.00
5930;DHT22;2990;48.746;9.236;2022-11-23T05:14:06;3.20;1.00
5930;DHT22;2990;48.746;9.236;2022-11-23T05:16:32;3.20;1.00
5930;DHT22;2990;48.746;9.236;2022-11-23T05:18:57;3.20;1.00
5930;DHT22;2990;48.746;9.236;2022-11-23T05:21:23;3.30;1.00
5930;DHT22;2990;48.746;9.236;2022-11-23T05:23:49;3.30;1.00
5930;DHT22;2990;48.746;9.236;2022-11-23T05:26:14;3.40;1.00
5930;DHT22;2990;48.746;9.236;2022-11-23T05:28:40;3.40;1.00
5930;DHT22;2990;48.746;9.236;2022-11-23T05:31:05;3.50;1.00
5930;DHT22;2990;48.746;9.236;2022-11-23T05:33:40;3.50;1.00
5930;DHT22;2990;48.746;9.236;2022-11-23T05:36:06;3.50;1.00
5930;DHT22;2990;48.746;9.236;2022-11-23T05:38:31;3.40;1.00
5930;DHT22;2990;48.746;9.236;2022-11-23T05:40:57;3.40;1.00
5930;DHT22;2990;48.746;9.236;2022-11-23T05:43:31;3.50;1.00
5930;DHT22;2990;48.746;9.236;2022-11-23T05:46:03;3.50;1.00
5930;DHT22;2990;48.746;9.236;2022-11-23T05:48:28;3.50;1.00
5930;DHT22;2990;48.746;9.236;2022-11-23T05:50:54;3.50;1.00
5930;DHT22;2990;48.746;9.236;2022-11-23T05:53:20;3.60;1.00
5930;DHT22;2990;48.746;9.236;2022-11-23T05:55:45;3.60;1.00
5930;DHT22;2990;48.746;9.236;2022-11-23T05:58:11;3.60;1.00
5930;DHT22;2990;48.746;9.236;2022-11-23T06:00:36;3.70;1.00
5930;DHT22;2990;48.746;9.236;2022-11-23T06:03:03;3.70;1.00
5930;DHT22;2990;48.746;9.236;2022-11-23T06:05:29;3.70;1.00
5930;DHT22;2990;48.746;9.236;2022-11-23T06:07:54;3.70;1.00
5930;DHT22;2990;48.746;9.236;2022-11-23T06:10:20;3.70;1.00
5930;DHT22;2990;48.746;9.236;2022-11-23T06:12:46;3.70;1.00
5930;DHT22;2990;48.746;9.236;2022-11-23T06:15:12;3.70;1.00
5930;DHT22;2990;48.746;9.236;2022-11-23T06:17:37;3.70;1.00
5930;DHT22;2990;48.746;9.236;2022-11-23T06:20:04;3.70;1.00
5930;DHT22;2990;48.746;9.236;2022-11-23T06:22:30;3.80;1.00
5930;DHT22;2990;48.746;9.236;2022-11-23T06:24:55;3.70;1.00
5930;DHT22;2990;48.746;9.236;2022-11-23T06:27:21;3.80;1.00
5930;DHT22;2990;48.746;9.236;2022-11-23T06:29:47;3.80;1.00
5930;DHT22;2990;48.746;9.236;2022-11-23T06:32:12;3.80;1.00
5930;DHT22;2990;48.746;9.236;2022-11-23T06:34:38;3.80;1.00
5930;DHT22;2990;48.746;9.236;2022-11-23T06:37:03;3.70;1.00
5930;DHT22;2990;48.746;9.236;2022-11-23T06:39:29;3.70;1.00
5930;DHT22;2990;48.746;9.236;2022-11-23T06:41:55;3.70;1.00
5930;DHT22;2990;48.746;9.236;2022-11-23T06:44:20;3.70;1.00
5930;DHT22;2990;48.746;9.236;2022-11-23T06:46:46;3.60;1.00
5930;DHT22;2990;48.746;9.236;2022-11-23T06:49:11;3.60;1.00
5930;DHT22;2990;48.746;9.236;2022-11-23T06:51:37;3.50;1.00
5930;DHT22;2990;48.746;9.236;2022-11-23T06:54:02;3.60;1.00
5930;DHT22;2990;48.746;9.236;2022-11-23T06:56:30;3.50;1.00
5930;DHT22;2990;48.746;9.236;2022-11-23T06:58:56;3.50;1.00
5930;DHT22;2990;48.746;9.236;2022-11-23T07:01:21;3.50;1.00
5930;DHT22;2990;48.746;9.236;2022-11-23T07:03:47;3.50;1.00
5930;DHT22;2990;48.746;9.236;2022-11-23T07:06:12;3.50;1.00
5930;DHT22;2990;48.746;9.236;2022-11-23T07:08:38;3.50;1.00
5930;DHT22;2990;48.746;9.236;2022-11-23T07:11:09;3.50;1.00
5930;DHT22;2990;48.746;9.236;2022-11-23T07:13:35;3.40;1.00
5930;DHT22;2990;48.746;9.236;2022-11-23T07:16:01;3.40;1.00
5930;DHT22;2990;48.746;9.236;2022-11-23T07:18:26;3.40;1.00
5930;DHT22;2990;48.746;9.236;2022-11-23T07:20:52;3.30;1.00
5930;DHT22;2990;48.746;9.236;2022-11-23T07:23:18;3.30;1.00
5930;DHT22;2990;48.746;9.236;2022-11-23T07:25:44;3.40;1.00
5930;DHT22;2990;48.746;9.236;2022-11-23T07:28:10;3.30;1.00
5930;DHT22;2990;48.746;9.236;2022-11-23T07:30:36;3.30;1.00
5930;DHT22;2990;48.746;9.236;2022-11-23T07:33:07;3.40;1.00
5930;DHT22;2990;48.746;9.236;2022-11-23T07:35:34;3.30;1.00
5930;DHT22;2990;48.746;9.236;2022-11-23T07:38:01;3.20;1.00
5930;DHT22;2990;48.746;9.236;2022-11-23T07:40:27;3.20;1.00
5930;DHT22;2990;48.746;9.236;2022-11-23T07:42:58;3.20;1.00
5930;DHT22;2990;48.746;9.236;2022-11-23T07:45:24;3.20;1.00
5930;DHT22;2990;48.746;9.236;2022-11-23T07:47:59;3.20;1.00
5930;DHT22;2990;48.746;9.236;2022-11-23T07:50:26;3.20;1.00
5930;DHT22;2990;48.746;9.236;2022-11-23T07:52:52;3.20;1.00
5930;DHT22;2990;48.746;9.236;2022-11-23T07:55:18;3.20;1.00
5930;DHT22;2990;48.746;9.236;2022-11-23T07:57:43;3.20;1.00
5930;DHT22;2990;48.746;9.236;2022-11-23T08:00:09;3.20;1.00
5930;DHT22;2990;48.746;9.236;2022-11-23T08:02:35;3.30;1.00
5930;DHT22;2990;48.746;9.236;2022-11-23T08:05:00;3.30;1.00
5930;DHT22;2990;48.746;9.236;2022-11-23T08:07:26;3.40;1.00
5930;DHT22;2990;48.746;9.236;2022-11-23T08:09:51;3.40;1.00
5930;DHT22;2990;48.746;9.236;2022-11-23T08:12:17;3.50;1.00
5930;DHT22;2990;48.746;9.236;2022-11-23T08:14:42;3.60;1.00
5930;DHT22;2990;48.746;9.236;2022-11-23T08:17:08;3.60;1.00
5930;DHT22;2990;48.746;9.236;2022-11-23T08:19:34;3.70;1.00
5930;DHT22;2990;48.746;9.236;2022-11-23T08:22:00;3.90;99.90
5930;DHT22;2990;48.746;9.236;2022-11-23T08:24:25;3.90;99.90
5930;DHT22;2990;48.746;9.236;2022-11-23T08:26:51;4.10;99.90
5930;DHT22;2990;48.746;9.236;2022-11-23T08:29:17;4.20;99.90
5930;DHT22;2990;48.746;9.236;2022-11-23T08:31:42;4.40;1.00
5930;DHT22;2990;48.746;9.236;2022-11-23T08:34:08;4.50;1.00
5930;DHT22;2990;48.746;9.236;2022-11-23T08:36:33;4.70;1.00
5930;DHT22;2990;48.746;9.236;2022-11-23T08:38:59;4.80;1.00
5930;DHT22;2990;48.746;9.236;2022-11-23T08:41:24;5.00;99.90
5930;DHT22;2990;48.746;9.236;2022-11-23T08:43:50;5.30;99.90
5930;DHT22;2990;48.746;9.236;2022-11-23T08:46:16;5.40;1.00
5930;DHT22;2990;48.746;9.236;2022-11-23T08:48:42;5.60;42.80
5930;DHT22;2990;48.746;9.236;2022-11-23T08:51:08;5.70;99.90
5930;DHT22;2990;48.746;9.236;2022-11-23T08:53:34;6.00;1.00
5930;DHT22;2990;48.746;9.236;2022-11-23T08:56:03;6.10;99.90
5930;DHT22;2990;48.746;9.236;2022-11-23T08:58:30;6.20;99.90
5930;DHT22;2990;48.746;9.236;2022-11-23T09:00:55;6.40;99.90
5930;DHT22;2990;48.746;9.236;2022-11-23T09:03:21;6.50;1.00
5930;DHT22;2990;48.746;9.236;2022-11-23T09:05:46;6.60;1.00
5930;DHT22;2990;48.746;9.236;2022-11-23T09:08:12;6.60;99.90
5930;DHT22;2990;48.746;9.236;2022-11-23T09:10:40;6.80;1.00
5930;DHT22;2990;48.746;9.236;2022-11-23T09:13:06;6.80;1.00
5930;DHT22;2990;48.746;9.236;2022-11-23T09:15:31;6.80;99.90
5930;DHT22;2990;48.746;9.236;2022-11-23T09:17:57;6.90;99.90
5930;DHT22;2990;48.746;9.236;2022-11-23T09:20:23;7.10;99.90
5930;DHT22;2990;48.746;9.236;2022-11-23T09:22:52;7.20;38.60
5930;DHT22;2990;48.746;9.236;2022-11-23T09:25:18;7.30;99.90
5930;DHT22;2990;48.746;9.236;2022-11-23T09:27:44;7.40;99.90
5930;DHT22;2990;48.746;9.236;2022-11-23T09:30:10;7.60;60.50
5930;DHT22;2990;48.746;9.236;2022-11-23T09:32:36;7.60;53.00
5930;DHT22;2990;48.746;9.236;2022-11-23T09:35:01;7.60;1.00
5930;DHT22;2990;48.746;9.236;2022-11-23T09:37:27;7.70;1.00
5930;DHT22;2990;48.746;9.236;2022-11-23T09:39:53;7.80;1.00
5930;DHT22;2990;48.746;9.236;2022-11-23T09:42:41;7.80;1.00
5930;DHT22;2990;48.746;9.236;2022-11-23T09:50:56;8.30;1.00
5930;DHT22;2990;48.746;9.236;2022-11-23T09:53:40;8.30;1.00
5930;DHT22;2990;48.746;9.236;2022-11-23T09:56:16;8.40;1.00
5930;DHT22;2990;48.746;9.236;2022-11-23T09:58:43;8.50;1.00
5930;DHT22;2990;48.746;9.236;2022-11-23T10:01:13;8.50;99.90
5930;DHT22;2990;48.746;9.236;2022-11-23T10:03:42;8.60;99.90
5930;DHT22;2990;48.746;9.236;2022-11-23T10:06:25;8.80;99.90
5930;DHT22;2990;48.746;9.236;2022-11-23T10:23:01;8.90;99.90
5930;DHT22;2990;48.746;9.236;2022-11-23T10:25:46;8.90;99.90
5930;DHT22;2990;48.746;9.236;2022-11-23T10:28:19;8.90;99.90
5930;DHT22;2990;48.746;9.236;2022-11-23T10:30:51;8.80;99.90
5930;DHT22;2990;48.746;9.236;2022-11-23T10:33:31;8.80;99.90
5930;DHT22;2990;48.746;9.236;2022-11-23T10:35:58;8.80;99.90
5930;DHT22;2990;48.746;9.236;2022-11-23T10:38:25;8.90;99.90
5930;DHT22;2990;48.746;9.236;2022-11-23T10:41:05;9.00;99.90
5930;DHT22;2990;48.746;9.236;2022-11-23T10:51:56;9.00;99.90
5930;DHT22;2990;48.746;9.236;2022-11-23T10:54:28;8.90;99.90
5930;DHT22;2990;48.746;9.236;2022-11-23T10:56:55;9.00;99.90
5930;DHT22;2990;48.746;9.236;2022-11-23T10:59:34;9.00;99.90
5930;DHT22;2990;48.746;9.236;2022-11-23T11:02:18;9.20;99.90
5930;DHT22;2990;48.746;9.236;2022-11-23T11:04:45;9.20;99.90
5930;DHT22;2990;48.746;9.236;2022-11-23T11:09:58;9.40;99.90
5930;DHT22;2990;48.746;9.236;2022-11-23T11:12:25;9.30;99.90
5930;DHT22;2990;48.746;9.236;2022-11-23T11:14:56;9.40;99.90
5930;DHT22;2990;48.746;9.236;2022-11-23T11:17:28;9.50;99.90
5930;DHT22;2990;48.746;9.236;2022-11-23T11:19:54;9.60;99.90
5930;DHT22;2990;48.746;9.236;2022-11-23T11:22:32;9.50;99.90
5930;DHT22;2990;48.746;9.236;2022-11-23T11:25:00;9.60;99.90
5930;DHT22;2990;48.746;9.236;2022-11-23T11:27:28;9.70;99.90
5930;DHT22;2990;48.746;9.236;2022-11-23T11:30:05;9.60;99.90
5930;DHT22;2990;48.746;9.236;2022-11-23T11:32:45;9.70;99.90
5930;DHT22;2990;48.746;9.236;2022-11-23T11:35:34;9.60;99.90
5930;DHT22;2990;48.746;9.236;2022-11-23T11:38:21;9.50;99.90
5930;DHT22;2990;48.746;9.236;2022-11-23T11:40:49;9.40;99.90
5930;DHT22;2990;48.746;9.236;2022-11-23T11:45:55;9.40;99.90
5930;DHT22;2990;48.746;9.236;2022-11-23T11:48:48;9.50;99.90
5930;DHT22;2990;48.746;9.236;2022-11-23T11:51:26;9.50;99.90
5930;DHT22;2990;48.746;9.236;2022-11-23T11:53:56;9.60;99.90
5930;DHT22;2990;48.746;9.236;2022-11-23T11:56:36;9.60;99.90
5930;DHT22;2990;48.746;9.236;2022-11-23T12:02:21;9.40;99.90
5930;DHT22;2990;48.746;9.236;2022-11-23T12:04:55;9.50;99.90
5930;DHT22;2990;48.746;9.236;2022-11-23T12:07:32;9.50;99.90
5930;DHT22;2990;48.746;9.236;2022-11-23T12:12:45;9.60;99.90
5930;DHT22;2990;48.746;9.236;2022-11-23T12:15:20;9.50;99.90
5930;DHT22;2990;48.746;9.236;2022-11-23T12:32:21;9.60;99.90
5930;DHT22;2990;48.746;9.236;2022-11-23T12:42:44;9.70;99.90
5930;DHT22;2990;48.746;9.236;2022-11-23T12:45:16;9.60;99.90
5930;DHT22;2990;48.746;9.236;2022-11-23T12:50:34;9.60;99.90
5930;DHT22;2990;48.746;9.236;2022-11-23T12:53:23;9.50;99.90
5930;DHT22;2990;48.746;9.236;2022-11-23T12:58:48;9.50;99.90
5930;DHT22;2990;48.746;9.236;2022-11-23T13:04:25;9.40;99.90
5930;DHT22;2990;48.746;9.236;2022-11-23T13:23:23;9.50;99.90
5930;DHT22;2990;48.746;9.236;2022-11-23T13:26:11;9.50;99.90
5930;DHT22;2990;48.746;9.236;2022-11-23T13:28:37;9.50;99.90
5930;DHT22;2990;48.746;9.236;2022-11-23T13:33:57;9.50;99.90
5930;DHT22;2990;48.746;9.236;2022-11-23T13:38:56;9.50;99.90
5930;DHT22;2990;48.746;9.236;2022-11-23T13:44:24;9.50;99.90
5930;DHT22;2990;48.746;9.236;2022-11-23T13:57:40;9.40;99.90
5930;DHT22;2990;48.746;9.236;2022-11-23T14:08:47;9.10;99.90
5930;DHT22;2990;48.746;9.236;2022-11-23T14:11:18;9.00;99.90
5930;DHT22;2990;48.746;9.236;2022-11-23T14:13:52;9.00;99.90
5930;DHT22;2990;48.746;9.236;2022-11-23T14:16:31;8.90;99.90
5930;DHT22;2990;48.746;9.236;2022-11-23T14:19:05;8.80;99.90
5930;DHT22;2990;48.746;9.236;2022-11-23T14:26:50;8.70;99.90
5930;DHT22;2990;48.746;9.236;2022-11-23T14:29:32;8.70;99.90
5930;DHT22;2990;48.746;9.236;2022-11-23T14:37:43;8.60;99.90
5930;DHT22;2990;48.746;9.236;2022-11-23T14:42:51;8.40;99.90
5930;DHT22;2990;48.746;9.236;2022-11-23T14:45:19;8.30;99.90
5930;DHT22;2990;48.746;9.236;2022-11-23T14:47:45;8.20;99.90
5930;DHT22;2990;48.746;9.236;2022-11-23T14:50:26;8.20;99.90
5930;DHT22;2990;48.746;9.236;2022-11-23T14:52:54;8.10;99.90
5930;DHT22;2990;48.746;9.236;2022-11-23T14:55:23;8.00;99.90
5930;DHT22;2990;48.746;9.236;2022-11-23T14:57:56;8.10;99.90
5930;DHT22;2990;48.746;9.236;2022-11-23T15:02:51;7.80;99.90
5930;DHT22;2990;48.746;9.236;2022-11-23T15:05:21;7.80;99.90
5930;DHT22;2990;48.746;9.236;2022-11-23T15:10:42;7.70;99.90
5930;DHT22;2990;48.746;9.236;2022-11-23T15:13:18;7.60;99.90
5930;DHT22;2990;48.746;9.236;2022-11-23T15:15:45;7.60;99.90
5930;DHT22;2990;48.746;9.236;2022-11-23T15:18:11;7.50;99.90
5930;DHT22;2990;48.746;9.236;2022-11-23T15:20:43;7.50;99.90
5930;DHT22;2990;48.746;9.236;2022-11-23T15:23:20;7.40;99.90
5930;DHT22;2990;48.746;9.236;2022-11-23T15:25:54;7.30;99.90
5930;DHT22;2990;48.746;9.236;2022-11-23T15:28:25;7.30;99.90
5930;DHT22;2990;48.746;9.236;2022-11-23T15:30:51;7.20;99.90
5930;DHT22;2990;48.746;9.236;2022-11-23T15:33:19;7.20;99.90
5930;DHT22;2990;48.746;9.236;2022-11-23T15:35:45;7.20;99.90
5930;DHT22;2990;48.746;9.236;2022-11-23T15:38:13;7.20;99.90
5930;DHT22;2990;48.746;9.236;2022-11-23T15:40:44;7.20;99.90
5930;DHT22;2990;48.746;9.236;2022-11-23T15:43:16;7.10;99.90
5930;DHT22;2990;48.746;9.236;2022-11-23T15:50:50;7.10;99.90
5930;DHT22;2990;48.746;9.236;2022-11-23T15:53:16;7.10;99.90
5930;DHT22;2990;48.746;9.236;2022-11-23T15:55:42;7.10;99.90
5930;DHT22;2990;48.746;9.236;2022-11-23T15:58:08;7.00;99.90
5930;DHT22;2990;48.746;9.236;2022-11-23T16:00:38;7.00;99.90
5930;DHT22;2990;48.746;9.236;2022-11-23T16:06:13;7.00;99.90
5930;DHT22;2990;48.746;9.236;2022-11-23T16:08:40;7.10;99.90
5930;DHT22;2990;48.746;9.236;2022-11-23T16:11:18;7.00;99.90
5930;DHT22;2990;48.746;9.236;2022-11-23T16:13:44;7.00;99.90
5930;DHT22;2990;48.746;9.236;2022-11-23T16:16:20;7.00;99.90
5930;DHT22;2990;48.746;9.236;2022-11-23T16:18:48;7.00;99.90
5930;DHT22;2990;48.746;9.236;2022-11-23T16:21:18;7.00;99.90
5930;DHT22;2990;48.746;9.236;2022-11-23T16:26:12;6.90;99.90
5930;DHT22;2990;48.746;9.236;2022-11-23T16:28:52;7.00;99.90
5930;DHT22;2990;48.746;9.236;2022-11-23T16:31:25;6.90;99.90
5930;DHT22;2990;48.746;9.236;2022-11-23T16:33:52;6.90;99.90
5930;DHT22;2990;48.746;9.236;2022-11-23T16:36:17;6.90;99.90
5930;DHT22;2990;48.746;9.236;2022-11-23T16:38:43;6.90;99.90
5930;DHT22;2990;48.746;9.236;2022-11-23T16:41:09;6.90;99.90
5930;DHT22;2990;48.746;9.236;2022-11-23T16:43:35;6.90;99.90
5930;DHT22;2990;48.746;9.236;2022-11-23T16:46:00;6.90;99.90
5930;DHT22;2990;48.746;9.236;2022-11-23T16:50:56;6.90;99.90
5930;DHT22;2990;48.746;9.236;2022-11-23T16:53:22;6.90;99.90
5930;DHT22;2990;48.746;9.236;2022-11-23T16:55:54;6.90;99.90
5930;DHT22;2990;48.746;9.236;2022-11-23T16:58:21;7.00;99.90
5930;DHT22;2990;48.746;9.236;2022-11-23T17:00:47;7.10;99.90
5930;DHT22;2990;48.746;9.236;2022-11-23T17:03:15;6.90;99.90
5930;DHT22;2990;48.746;9.236;2022-11-23T17:05:41;7.00;99.90
5930;DHT22;2990;48.746;9.236;2022-11-23T17:08:06;7.00;1.00
5930;DHT22;2990;48.746;9.236;2022-11-23T17:10:32;7.00;1.00
5930;DHT22;2990;48.746;9.236;2022-11-23T17:12:59;6.90;1.00
5930;DHT22;2990;48.746;9.236;2022-11-23T17:15:24;6.90;1.00
5930;DHT22;2990;48.746;9.236;2022-11-23T17:17:50;6.90;1.00
5930;DHT22;2990;48.746;9.236;2022-11-23T17:20:16;6.80;1.00
5930;DHT22;2990;48.746;9.236;2022-11-23T17:22:42;6.70;99.90
5930;DHT22;2990;48.746;9.236;2022-11-23T17:25:09;6.70;99.90
5930;DHT22;2990;48.746;9.236;2022-11-23T17:27:38;6.70;1.00
5930;DHT22;2990;48.746;9.236;2022-11-23T17:30:31;6.60;99.90
5930;DHT22;2990;48.746;9.236;2022-11-23T17:32:57;6.50;99.90
5930;DHT22;2990;48.746;9.236;2022-11-23T17:35:24;6.40;61.70
5930;DHT22;2990;48.746;9.236;2022-11-23T17:37:50;6.40;1.00
5930;DHT22;2990;48.746;9.236;2022-11-23T17:40:18;6.40;99.90
5930;DHT22;2990;48.746;9.236;2022-11-23T17:42:44;6.30;1.00
5930;DHT22;2990;48.746;9.236;2022-11-23T17:45:10;6.40;99.90
5930;DHT22;2990;48.746;9.236;2022-11-23T17:47:36;6.40;1.00
5930;DHT22;2990;48.746;9.236;2022-11-23T17:50:03;6.30;99.90
5930;DHT22;2990;48.746;9.236;2022-11-23T17:52:31;6.30;1.00
5930;DHT22;2990;48.746;9.236;2022-11-23T17:54:57;6.30;1.00
5930;DHT22;2990;48.746;9.236;2022-11-23T17:57:25;6.30;99.90
5930;DHT22;2990;48.746;9.236;2022-11-23T17:59:51;6.20;99.90
5930;DHT22;2990;48.746;9.236;2022-11-23T18:02:17;6.10;99.90
5930;DHT22;2990;48.746;9.236;2022-11-23T18:04:44;6.10;1.00
5930;DHT22;2990;48.746;9.236;2022-11-23T18:07:14;6.00;99.90
5930;DHT22;2990;48.746;9.236;2022-11-23T18:09:40;5.90;99.90
5930;DHT22;2990;48.746;9.236;2022-11-23T18:12:06;5.80;1.00
5930;DHT22;2990;48.746;9.236;2022-11-23T18:14:32;5.80;1.00
5930;DHT22;2990;48.746;9.236;2022-11-23T18:16:58;5.70;1.00
5930;DHT22;2990;48.746;9.236;2022-11-23T18:19:23;5.70;1.00
5930;DHT22;2990;48.746;9.236;2022-11-23T18:21:49;5.60;1.00
5930;DHT22;2990;48.746;9.236;2022-11-23T18:24:15;5.60;1.00
5930;DHT22;2990;48.746;9.236;2022-11-23T18:26:41;5.60;1.00
5930;DHT22;2990;48.746;9.236;2022-11-23T18:29:07;5.60;1.00
5930;DHT22;2990;48.746;9.236;2022-11-23T18:31:33;5.50;1.00
5930;DHT22;2990;48.746;9.236;2022-11-23T18:33:59;5.50;7.90
5930;DHT22;2990;48.746;9.236;2022-11-23T18:36:27;5.50;38.30
5930;DHT22;2990;48.746;9.236;2022-11-23T18:38:56;5.50;45.00
5930;DHT22;2990;48.746;9.236;2022-11-23T18:41:22;5.40;67.10
5930;DHT22;2990;48.746;9.236;2022-11-23T18:43:48;5.50;94.90
5930;DHT22;2990;48.746;9.236;2022-11-23T18:46:14;5.40;97.40
5930;DHT22;2990;48.746;9.236;2022-11-23T18:48:44;5.50;99.90
5930;DHT22;2990;48.746;9.236;2022-11-23T18:51:10;5.40;99.90
5930;DHT22;2990;48.746;9.236;2022-11-23T18:53:38;5.40;99.90
5930;DHT22;2990;48.746;9.236;2022-11-23T18:56:05;5.40;99.90
5930;DHT22;2990;48.746;9.236;2022-11-23T18:58:39;5.40;99.90
5930;DHT22;2990;48.746;9.236;2022-11-23T19:01:17;5.50;99.90
5930;DHT22;2990;48.746;9.236;2022-11-23T19:03:44;5.50;99.90